Lane City, Texas
Current Conditions -  °F | °C
As of 7:15 AM on Sunday 23 Nov 2014 (Local Time) from KARM Reporting Station
Clear Clear  
Wind Chill: 56°   Ceiling: Unl
Heat Index: 56°   Visibility: 10mi
Dew Point: 55°   Wind: 7mph
Humidity: 94%   Direction: 220°SW
Pressure: 29.69"   Gusts: NA
Location:  29.22°N, 96.03°W
Report Text: KARM 231315Z AUTO 22006KT 10SM CLR 14/13 A2969 RMK AO2 T01360127
Loading
Personal Weather Stations






























Interactive Weather Map New forecast layout! Learn more

10-Day Weather Forecast

Advertisements
Track Severe Weather on mobile